Dewey, IL (61840)

1:20 PM CDT on September 19, 2014 (GMT -0500)
n fisher | Change Station
CLOSE
Current Station
Personal Weather Station
Location: Fisher, IL
Elevation: 722 ft
Nearby Weather Stations

Elev 722 ft 40.32 °N, 88.35 °W | Updated 20 seconds ago

Clear
Clear
74.7 °F
Feels Like 77 °F
N
10.4
Wind Variable Wind from SE

Today
High -- | Low -- °F
--% Chance of Precip.
Yesterday
High -- | Low -- °F
Precip. -- in
6:37 AM 6:55 PM
Waning Crescent, 17% visible
Pressure 30.14 in
Visibility 10.0 miles
Clouds Clear
Heat Index 77 °F
Dew Point 47 °F
Humidity 38%
Rainfall 0.00 in
Snow Depth Not available.
UV 8 out of 12
Pollen 5.50 out of 12
Air Quality Not available.
Flu Activity Not available.
METAR KTIP 191750Z AUTO 16009G17KT 10SM CLR 24/04 A3014 RMK AO2 T02400043 10241 20102

More Conditions Fewer Conditions

Pressure 30.14 in
Visibility 10.0 miles
Clouds Clear
Heat Index 77 °F
Dew Point 47 °F
Humidity 38%
Rainfall 0.00 in
Snow Depth Not available.
UV 8 out of 12
Pollen 5.50 out of 12
Air Quality Not available.
Flu Activity Not available.
METAR KTIP 191750Z AUTO 16009G17KT 10SM CLR 24/04 A3014 RMK AO2 T02400043 10241 20102

More Conditions Fewer Conditions

10-Day Weather Forecast

Almanac

Astronomy

Sep. 19, 2014 Rise Set
Actual Time 6:37 AM CDT 6:55 PM CDT
Civil Twilight 6:10 AM CDT 7:22 PM CDT
Nautical Twilight 5:38 AM CDT 7:54 PM CDT
Astronomical Twilight 5:05 AM CDT 8:26 PM CDT
Moon 2:22 AM CDT 4:24 PM CDT
Length of Visible Light 13h 11m
Length of Day
12h 17m
Tomorrow will be 2m 38s shorter.
Waning Crescent, 17% of the Moon is Illuminated
Today
Waning Crescent
Sep 24
New
Oct 1
First Quarter
Oct 8
Full
Oct 15
Last Quarter

Today's Extremes

State Highs State Lows

Community

WunderPhotos

Upload Photos

1,754,677 photos uploaded!

WunderBlogs® & News

Nearby

Snow Depth

Station Depth Elevation
No new snow has been reported.

Earthquake Activity

City Distance Mag. Time & Date
No recent earthquake activity has been reported nearby.
Minimum magnitude displayed is 2.5.

Coastal Water Temperatures

Place Temperature
No Stations Reporting

Nearby Weather Stations